Latest Weather Observations for Hamilton

IDV60801

Issued at 10:32 am EDT Thursday 23 January 2020 (issued every 10 minutes, with the page automatically refreshed every 10 minutes)

About weather observations | Map of weather stations | Latest weather observations for VIC | Other Formats
Station Details ID: 090173 Name: HAMILTON AIRPORT Lat: -37.65 Lon: 142.06 Height: 241.1 m
Data from the previous 72 hours. | See also: Recent months at Hamilton
Date/Time
EDT
Temp
°C
App
Temp
°C
Dew
Point
°C
Rel
Hum
%
Delta-T
°C
Wind Press
QNH
hPa
Press
MSL
hPa
Rain since
9am
mm
Dir  Spd
km/h
Gust
km/h
Spd
kts
Gust
kts
23/10:30am 12.6 6.4 10.1 85 1.3 NW 33 46 18 25 996.6 995.8 3.2
23/10:00am 12.3 7.3 11.0 92 0.7 NNW 28 39 15 21 996.2 995.4 3.2
23/09:48am 11.9 7.2 10.8 93 0.6 NNW 26 35 14 19 996.0 995.2 3.2
23/09:30am 11.8 6.0 10.7 93 0.6 NW 32 44 17 24 996.1 995.3 2.8
23/09:26am 11.5 6.0 10.6 94 0.5 NNW 30 44 16 24 996.1 995.3 2.8
23/09:06am 11.4 6.6 10.3 93 0.6 NNW 26 33 14 18 996.0 995.2 0.8
23/09:00am 11.5 6.7 10.4 93 0.6 NNW 26 33 14 18 995.9 995.1 9.8
23/08:37am 11.8 6.2 10.2 90 0.8 N 30 43 16 23 995.5 994.7 8.6
23/08:30am 11.9 6.7 10.3 90 0.8 N 28 43 15 23 995.5 994.7 8.6
23/08:00am 11.4 5.8 10.0 91 0.7 NNW 30 43 16 23 995.4 994.6 8.6
23/07:30am 11.2 5.2 10.0 92 0.6 N 32 44 17 24 995.3 994.5 8.6
23/07:00am 10.8 5.8 9.7 93 0.6 N 26 35 14 19 995.0 994.2 8.6
23/06:45am 10.7 5.4 9.8 94 0.5 N 28 35 15 19 995.0 994.2 8.4
23/06:30am 10.6 5.6 9.7 94 0.5 N 26 33 14 18 995.6 994.8 8.4
23/06:03am 10.3 5.6 9.4 94 0.5 N 24 33 13 18 995.8 995.0 8.4
23/06:00am 10.3 5.3 9.4 94 0.5 N 26 33 14 18 995.8 995.0 8.4
23/05:30am 10.0 4.9 9.1 94 0.5 N 26 32 14 17 995.5 994.7 8.4
23/05:00am 9.9 5.9 9.0 94 0.5 N 20 26 11 14 995.9 995.1 8.2
23/04:30am 9.9 6.4 8.8 93 0.5 N 17 22 9 12 996.2 995.4 7.6
23/04:00am 10.0 7.3 8.8 92 0.6 N 13 17 7 9 996.8 996.0 6.8
23/03:30am 10.0 6.8 8.6 91 0.7 NW 15 20 8 11 997.3 996.6 6.0
23/03:00am 10.3 7.2 8.9 91 0.7 WNW 15 22 8 12 997.7 997.0 5.6
23/02:30am 10.6 7.2 9.2 91 0.7 WNW 17 22 9 12 998.3 997.5 5.0
23/02:00am 11.1 6.8 9.5 90 0.8 W 22 35 12 19 998.8 998.0 3.8
23/01:53am 11.3 8.0 9.6 89 0.9 NW 17 35 9 19 999.1 998.3 3.0
23/01:30am 11.9 9.9 10.3 90 0.8 N 11 13 6 7 998.7 997.9 2.4
23/01:00am 11.9 9.5 10.0 88 1.0 N 13 15 7 8 998.9 998.1 2.4
23/12:30am 12.0 9.6 10.1 88 1.0 N 13 17 7 9 999.3 998.5 2.2
23/12:00am 12.1 9.8 10.3 89 0.9 N 13 15 7 8 999.2 998.4 2.2
 
Date/Time
EDT
Temp
°C
App
Temp
°C
Dew
Point
°C
Rel
Hum
%
Delta-T
°C
Wind Press
QNH
hPa
Press
MSL
hPa
Rain since
9am
mm
Dir  Spd
km/h
Gust
km/h
Spd
kts
Gust
kts
22/11:30pm 12.2 9.9 10.6 90 0.8 N 13 15 7 8 999.6 998.8 2.2
22/11:00pm 12.2 9.2 10.6 90 0.8 N 17 20 9 11 1000.2 999.4 2.2
22/10:30pm 12.5 10.3 10.9 90 0.8 NNE 13 17 7 9 1000.5 999.7 2.2
22/10:00pm 12.6 10.8 10.8 89 1.0 NNE 11 13 6 7 999.8 999.0 2.0
22/09:30pm 12.7 10.9 10.8 88 1.0 N 11 13 6 7 999.7 998.9 2.0
22/09:00pm 12.7 10.9 10.9 89 1.0 NNE 11 13 6 7 999.1 998.3 2.0
22/08:30pm 13.1 12.2 11.2 88 1.0 N 7 9 4 5 998.9 998.1 2.0
22/08:00pm 13.1 12.2 10.8 86 1.2 NNW 6 9 3 5 998.8 998.0 2.0
22/07:30pm 13.1 12.0 10.6 85 1.3 WNW 7 9 4 5 999.0 998.2 1.8
22/07:00pm 13.6 12.1 10.6 82 1.6 W 9 17 5 9 998.9 998.1 1.2
22/06:30pm 14.0 11.9 11.3 84 1.5 NW 13 19 7 10 998.6 997.8 1.0
22/06:00pm 13.8 12.1 11.1 84 1.5 WNW 11 15 6 8 999.2 998.4 0.8
22/05:30pm 14.6 11.6 10.8 78 2.0 W 17 24 9 13 998.8 998.0 0.0
22/05:00pm 15.8 12.6 12.0 78 2.1 W 20 26 11 14 998.9 998.1 0.0
22/04:56pm 15.9 12.8 12.1 78 2.1 W 20 28 11 15 998.8 998.0 0.0
22/04:30pm 15.9 12.9 13.6 86 1.3 W 22 32 12 17 998.9 998.1 0.0
22/04:00pm 17.1 14.0 14.6 85 1.5 W 24 35 13 19 998.5 997.7 0.0
22/03:57pm 17.0 13.5 14.6 86 1.4 W 26 35 14 19 998.3 997.5 0.0
22/03:30pm 17.1 13.7 14.7 86 1.4 W 26 35 14 19 998.3 997.5 0.0
22/03:00pm 19.0 14.1 12.7 67 3.6 W 30 39 16 21 998.3 997.5 0.0
22/02:41pm 20.8 13.5 11.7 56 5.1 W 41 59 22 32 998.0 997.2 0.0
22/02:30pm 21.5 13.7 11.2 52 5.8 WSW 43 54 23 29 997.9 997.1 0.0
22/02:20pm 21.8 13.9 10.9 50 6.1 WSW 43 54 23 29 997.6 996.9 0.0
22/02:01pm 25.2 16.7 9.1 36 8.8 NW 44 63 24 34 997.4 996.7 0.0
22/02:00pm 26.3 17.3 8.8 33 9.7 NW 46 63 25 34 997.3 996.6 0.0
22/01:30pm 28.8 18.4 6.2 24 12.0 N 50 72 27 39 996.5 995.7 0.0
22/01:00pm 28.9 17.8 6.3 24 12.2 N 54 76 29 41 996.6 995.8 0.0
22/12:30pm 27.8 17.8 6.0 25 11.5 N 48 69 26 37 997.1 996.3 0.0
22/12:03pm 26.2 16.7 6.8 29 10.3 N 46 65 25 35 998.0 997.2 0.0
22/12:00pm 25.8 15.5 6.4 29 10.3 N 50 65 27 35 998.1 997.3 0.0
22/11:30am 25.6 16.0 6.3 29 10.1 N 46 65 25 35 998.7 997.9 0.0
22/11:02am 25.1 15.0 5.8 29 10.0 N 48 69 26 37 998.9 998.1 0.0
22/11:00am 25.7 15.7 6.3 29 10.2 N 48 63 26 34 998.8 998.0 0.0
22/10:30am 25.5 14.6 5.7 28 10.3 N 52 70 28 38 998.7 997.9 0.0
22/10:00am 24.7 15.5 6.4 31 9.6 N 44 63 24 34 998.9 998.1 0.0
22/09:30am 24.5 14.9 6.3 31 9.5 N 46 59 25 32 999.3 998.5 0.0
22/09:00am 23.9 15.8 7.1 34 8.9 N 39 54 21 29 999.6 998.8 0.0
22/08:30am 22.1 13.4 7.9 40 7.5 N 43 56 23 30 999.6 998.8 0.0
22/08:03am 22.2 14.3 8.0 40 7.5 N 39 57 21 31 999.8 999.0 0.0
22/08:00am 22.0 14.6 8.2 41 7.4 N 37 48 20 26 999.8 999.0 0.0
22/07:30am 20.7 13.4 7.3 42 6.9 N 35 46 19 25 1000.0 999.2 0.0
22/07:00am 20.4 13.7 7.4 43 6.8 N 32 43 17 23 1000.0 999.2 0.0
22/06:30am 20.3 13.3 7.0 42 6.8 N 33 43 18 23 999.8 999.0 0.0
22/06:00am 19.9 13.4 6.3 41 6.9 N 30 39 16 21 1000.1 999.3 0.0
22/05:30am 19.3 12.2 5.4 40 6.9 N 32 43 17 23 1000.3 999.5 0.0
22/05:00am 18.7 12.0 5.5 42 6.6 N 30 39 16 21 1000.7 999.9 0.0
22/04:30am 17.8 11.9 5.7 45 6.0 N 26 35 14 19 1001.1 1000.4 0.0
22/04:00am 16.5 11.8 6.1 50 5.1 N 20 24 11 13 1001.7 1001.0 0.0
22/03:30am 15.4 11.3 6.4 55 4.4 N 17 20 9 11 1002.4 1001.6 0.0
22/03:00am 15.8 10.9 7.1 56 4.4 N 22 28 12 15 1002.9 1002.1 0.0
22/02:30am 11.7 8.5 8.4 80 1.6 NNE 15 19 8 10 1003.2 1002.4 0.0
22/02:00am 10.8 8.6 8.0 83 1.4 NNW 9 11 5 6 1003.7 1002.9 0.0
22/01:30am 11.2 9.0 7.9 80 1.6 NE 9 13 5 7 1004.2 1003.4 0.0
22/01:00am 11.5 8.2 8.2 80 1.6 E 15 17 8 9 1004.7 1004.0 0.0
22/12:30am 11.8 7.9 8.5 80 1.7 ESE 19 20 10 11 1005.1 1004.4 0.0
22/12:00am 11.9 8.3 8.2 78 1.8 SE 17 20 9 11 1005.6 1004.9 0.0
 
Date/Time
EDT
Temp
°C
App
Temp
°C
Dew
Point
°C
Rel
Hum
%
Delta-T
°C
Wind Press
QNH
hPa
Press
MSL
hPa
Rain since
9am
mm
Dir  Spd
km/h
Gust
km/h
Spd
kts
Gust
kts
21/11:30pm 12.8 9.6 8.5 75 2.2 SE 15 19 8 10 1005.7 1005.0 0.0
21/11:00pm 13.4 9.8 8.3 71 2.6 SSE 17 19 9 10 1006.0 1005.3 0.0
21/10:30pm 14.6 11.0 8.5 67 3.1 SSE 17 22 9 12 1006.2 1005.5 0.0
21/10:00pm 15.6 12.4 8.4 62 3.7 SSE 15 17 8 9 1006.1 1005.4 0.0
21/09:30pm 16.9 13.7 8.3 57 4.4 SE 15 20 8 11 1006.1 1005.4 0.0
21/09:00pm 18.5 16.0 8.2 51 5.4 S 11 15 6 8 1006.3 1005.6 0.0
21/08:30pm 22.4 17.6 4.5 31 8.9 NNW 19 26 10 14 1006.1 1005.4 0.0
21/08:00pm 23.7 18.3 4.6 29 9.6 NNW 22 30 12 16 1006.1 1005.4 0.0
21/07:30pm 24.4 19.5 4.2 27 10.1 NNW 19 26 10 14 1005.9 1005.2 0.0
21/07:00pm 25.0 21.3 4.2 26 10.5 NNW 13 20 7 11 1006.0 1005.3 0.0
21/06:30pm 25.1 20.1 3.7 25 10.7 N 19 26 10 14 1006.1 1005.4 0.0
21/06:00pm 25.4 20.3 4.0 25 10.8 NW 20 30 11 16 1006.2 1005.5 0.0
21/05:30pm 25.5 20.7 4.6 26 10.6 WNW 19 22 10 12 1006.6 1005.8 0.0
21/05:00pm 24.9 20.8 4.1 26 10.5 WNW 15 26 8 14 1007.0 1006.2 0.0
21/04:30pm 24.2 20.1 4.6 28 9.9 WNW 15 24 8 13 1007.3 1006.5 0.0
21/04:00pm 23.6 18.7 5.0 30 9.4 SW 20 26 11 14 1007.9 1007.1 0.0
21/03:30pm 24.3 20.3 5.1 29 9.8 WNW 15 24 8 13 1008.3 1007.6 0.0
21/03:00pm 22.0 17.3 3.2 29 9.1 WSW 17 26 9 14 1008.6 1007.9 0.0
21/02:30pm 22.9 19.4 5.3 32 8.9 NW 13 24 7 13 1008.9 1008.2 0.0
21/02:00pm 21.7 17.3 4.7 33 8.5 NW 17 24 9 13 1009.5 1008.8 0.0
21/01:30pm 20.8 17.2 5.2 36 7.8 WNW 13 22 7 12 1010.1 1009.4 0.0
21/01:00pm 19.4 16.2 5.1 39 7.1 NW 11 19 6 10 1010.4 1009.7 0.0
21/12:30pm 18.9 15.9 6.1 43 6.4 SSW 11 17 6 9 1010.9 1010.1 0.0
21/12:00pm 18.3 15.6 5.8 44 6.2 WNW 9 17 5 9 1011.2 1010.4 0.0
21/11:30am 17.2 13.5 4.5 43 6.1 W 13 20 7 11 1011.5 1010.7 0.0
21/11:00am 16.8 14.6 6.0 49 5.3 N 7 11 4 6 1011.7 1010.9 0.0
21/10:30am 15.9 13.5 6.9 55 4.5 S 9 15 5 8 1012.1 1011.4 0.0
21/10:00am 15.0 12.4 6.3 56 4.3 SW 9 17 5 9 1012.1 1011.4 0.0
21/09:30am 15.2 12.6 7.7 61 3.8 SSW 11 17 6 9 1012.1 1011.4 0.0
21/09:00am 13.4 10.6 7.0 65 3.1 SSW 11 17 6 9 1012.2 1011.5 0.2
21/08:30am 12.4 10.4 8.7 78 1.9 SW 9 11 5 6 1011.9 1011.2 0.2
21/08:00am 10.6 9.2 8.9 89 0.9 WSW 6 9 3 5 1011.6 1010.8 0.2
21/07:30am 8.9 7.0 7.7 92 0.6 W 7 9 4 5 1011.4 1010.6 0.2
21/07:00am 8.3 6.3 6.9 91 0.7 WSW 7 7 4 4 1011.1 1010.3 0.2
21/06:30am 8.8 6.8 7.3 90 0.7 WSW 7 7 4 4 1010.9 1010.1 0.2
21/06:00am 9.0 7.0 7.1 88 0.9 WSW 7 7 4 4 1010.6 1009.9 0.2
21/05:30am 9.4 7.0 7.2 86 1.1 SW 9 9 5 5 1010.3 1009.6 0.2
21/05:00am 10.0 8.2 7.8 86 1.1 SSW 7 9 4 5 1010.2 1009.5 0.2
21/04:30am 9.6 7.2 7.2 85 1.1 SSW 9 11 5 6 1010.2 1009.5 0.2
21/04:00am 10.5 8.2 7.4 81 1.5 SSW 9 13 5 7 1010.1 1009.4 0.2
21/03:30am 12.1 9.2 8.2 77 1.9 SSW 13 17 7 9 1010.1 1009.4 0.2
21/03:00am 12.5 9.2 8.0 74 2.2 SSW 15 20 8 11 1010.4 1009.7 0.2
21/02:30am 12.7 9.8 8.2 74 2.3 SSW 13 22 7 12 1010.6 1009.9 0.2
21/02:00am 12.6 9.2 7.7 72 2.4 S 15 24 8 13 1010.7 1010.0 0.2
21/01:30am 12.7 8.6 7.8 72 2.4 S 19 24 10 13 1011.1 1010.3 0.2
21/01:00am 12.8 9.2 8.5 75 2.2 S 17 22 9 12 1011.2 1010.4 0.2
21/12:30am 12.8 8.2 8.3 74 2.3 S 22 26 12 14 1011.5 1010.7 0.2
21/12:00am 12.9 8.9 9.0 77 2.0 S 20 28 11 15 1011.6 1010.8 0.2
 
Date/Time
EDT
Temp
°C
App
Temp
°C
Dew
Point
°C
Rel
Hum
%
Delta-T
°C
Wind Press
QNH
hPa
Press
MSL
hPa
Rain since
9am
mm
Dir  Spd
km/h
Gust
km/h
Spd
kts
Gust
kts
20/11:30pm 13.0 9.6 9.3 78 1.9 SSW 17 22 9 12 1011.6 1010.8 0.2
20/11:00pm 13.0 9.2 9.1 77 2.0 SSW 19 26 10 14 1011.6 1010.8 0.2
20/10:30pm 13.1 9.1 9.0 76 2.1 SSW 20 28 11 15 1011.7 1010.9 0.2
20/10:00pm 13.1 9.3 9.0 76 2.1 SSW 19 26 10 14 1011.6 1010.8 0.2
20/09:30pm 13.1 9.3 9.2 77 2.0 SSW 19 24 10 13 1011.3 1010.5 0.2
20/09:00pm 13.2 8.9 9.5 78 1.9 SSW 22 32 12 17 1011.1 1010.3 0.2
20/08:30pm 13.8 9.7 10.2 79 1.9 SSW 22 28 12 15 1010.4 1009.7 0.2
20/08:00pm 14.1 9.2 10.1 77 2.1 SSW 26 33 14 18 1010.0 1009.3 0.2
20/07:30pm 14.3 10.0 10.9 80 1.8 S 24 33 13 18 1009.7 1009.0 0.2
20/07:00pm 14.5 10.4 11.3 81 1.7 SSW 24 30 13 16 1009.4 1008.7 0.2
20/06:52pm 14.5 9.9 11.1 80 1.8 S 26 33 14 18 1009.3 1008.6 0.2
20/06:30pm 14.4 10.3 11.6 83 1.5 S 24 33 13 18 1009.2 1008.5 0.2
20/06:00pm 14.3 11.7 13.2 93 0.6 S 19 26 10 14 1009.0 1008.3 0.2
20/05:49pm 13.6 10.3 12.7 94 0.5 S 22 28 12 15 1009.0 1008.3 0.2
20/05:30pm 13.9 10.0 13.3 96 0.3 S 26 33 14 18 1008.9 1008.2 0.2
20/05:00pm 14.1 9.4 13.3 95 0.4 S 30 39 16 21 1008.8 1008.1 0.2
20/04:30pm 14.6 10.5 13.8 95 0.5 S 28 35 15 19 1008.7 1008.0 0.2
20/04:00pm 14.7 10.6 13.9 95 0.5 S 28 35 15 19 1008.6 1007.9 0.2
20/03:41pm 15.0 10.8 13.5 91 0.8 S 28 41 15 22 1008.5 1007.8 0.0
20/03:30pm 15.8 10.9 13.8 88 1.1 S 32 41 17 22 1008.5 1007.8 0.0
20/03:11pm 15.4 10.5 13.8 90 0.9 S 32 43 17 23 1008.4 1007.7 0.0
20/03:00pm 15.6 11.3 14.3 92 0.7 S 30 43 16 23 1008.5 1007.8 0.0
20/02:54pm 15.6 11.4 14.6 94 0.6 S 30 39 16 21 1008.4 1007.7 0.0
20/02:52pm 15.2 10.8 14.1 93 0.6 S 30 39 16 21 1008.4 1007.7 0.0
20/02:34pm 15.0 10.2 13.9 93 0.6 S 32 39 17 21 1008.4 1007.7 0.0
20/02:30pm 15.1 10.3 14.0 93 0.6 S 32 41 17 22 1008.3 1007.6 0.0
20/02:20pm 16.0 11.5 14.9 93 0.6 S 32 39 17 21 1008.3 1007.6 0.0
20/02:00pm 15.7 11.9 14.6 93 0.6 S 28 43 15 23 1008.3 1007.6 0.0
20/01:57pm 15.6 11.7 14.3 92 0.7 SSE 28 43 15 23 1008.3 1007.6 0.0
20/01:45pm 16.0 11.2 14.7 92 0.8 S 33 43 18 23 1008.2 1007.5 0.0
20/01:30pm 16.3 11.9 15.2 93 0.6 S 32 41 17 22 1008.1 1007.4 0.0
20/01:26pm 16.0 11.4 14.7 92 0.8 S 32 41 17 22 1008.1 1007.4 0.0
20/01:00pm 16.4 12.4 15.1 92 0.8 SSE 30 43 16 23 1008.2 1007.5 0.0
20/12:30pm 15.4 11.9 14.6 95 0.5 SSE 26 43 14 23 1008.5 1007.8 0.0
20/12:00pm 15.0 11.0 14.2 95 0.5 SSE 28 41 15 22 1008.4 1007.7 0.0
20/11:54am 15.5 11.8 14.9 96 0.3 SSE 28 41 15 22 1008.4 1007.7 0.0
20/11:30am 15.5 11.4 14.9 96 0.3 SSE 30 37 16 20 1008.2 1007.5 0.0
20/11:21am 15.8 12.2 15.3 97 0.3 SSE 28 43 15 23 1008.0 1007.2 0.0
20/11:00am 15.3 10.8 14.8 97 0.3 SSE 32 44 17 24 1007.9 1007.1 0.0
20/10:49am 15.3 11.2 14.8 97 0.3 SSE 30 39 16 21 1007.8 1007.0 0.0

Other formats

Comma delimited format used in spreadsheet applications
http://www.bom.gov.au/fwo/IDV60801/IDV60801.94829.axf

JavaScript Object Notation format (JSON) in row-major order
http://www.bom.gov.au/fwo/IDV60801/IDV60801.94829.json

Data quality

Most of these data are generated automatically and are frequently updated. Quality checks on data are not normally performed. It is possible for incorrect values to appear. Refer to information at About Latest Weather Observations and please check the disclaimer before using these data.